sensor_id;sensor_type;location;lat;lon;timestamp;pressure;altitude;pressure_sealevel;temperature;humidity
4085;BME280;2057;50.858;6.572;2023-01-29T00:01:08;101810.81;;;-2.55;100.00
4085;BME280;2057;50.858;6.572;2023-01-29T00:03:34;101803.19;;;-2.57;100.00
4085;BME280;2057;50.858;6.572;2023-01-29T00:06:03;101802.97;;;-2.58;100.00
4085;BME280;2057;50.858;6.572;2023-01-29T00:08:32;101801.38;;;-2.58;100.00
4085;BME280;2057;50.858;6.572;2023-01-29T00:11:04;101794.91;;;-2.70;100.00
4085;BME280;2057;50.858;6.572;2023-01-29T00:13:30;101788.09;;;-2.78;100.00
4085;BME280;2057;50.858;6.572;2023-01-29T00:15:57;101786.34;;;-2.72;100.00
4085;BME280;2057;50.858;6.572;2023-01-29T00:18:23;101779.00;;;-2.58;100.00
4085;BME280;2057;50.858;6.572;2023-01-29T00:20:52;101776.94;;;-2.75;100.00
4085;BME280;2057;50.858;6.572;2023-01-29T00:23:17;101774.97;;;-2.77;100.00
4085;BME280;2057;50.858;6.572;2023-01-29T00:25:43;101773.00;;;-2.80;100.00
4085;BME280;2057;50.858;6.572;2023-01-29T00:28:09;101775.78;;;-2.84;100.00
4085;BME280;2057;50.858;6.572;2023-01-29T00:30:35;101780.06;;;-2.83;100.00
4085;BME280;2057;50.858;6.572;2023-01-29T00:33:00;101773.88;;;-2.79;100.00
4085;BME280;2057;50.858;6.572;2023-01-29T00:35:25;101781.38;;;-2.72;100.00
4085;BME280;2057;50.858;6.572;2023-01-29T00:37:51;101782.13;;;-2.73;100.00
4085;BME280;2057;50.858;6.572;2023-01-29T00:40:16;101772.72;;;-2.69;100.00
4085;BME280;2057;50.858;6.572;2023-01-29T00:42:45;101769.81;;;-2.79;100.00
4085;BME280;2057;50.858;6.572;2023-01-29T00:45:29;101766.50;;;-2.92;100.00
4085;BME280;2057;50.858;6.572;2023-01-29T00:47:54;101756.69;;;-2.98;100.00
4085;BME280;2057;50.858;6.572;2023-01-29T00:50:20;101756.38;;;-2.94;100.00
4085;BME280;2057;50.858;6.572;2023-01-29T00:52:45;101753.47;;;-3.04;100.00
4085;BME280;2057;50.858;6.572;2023-01-29T00:55:12;101748.56;;;-2.97;100.00
4085;BME280;2057;50.858;6.572;2023-01-29T00:57:38;101746.22;;;-2.75;100.00
4085;BME280;2057;50.858;6.572;2023-01-29T01:00:07;101748.69;;;-2.82;100.00
4085;BME280;2057;50.858;6.572;2023-01-29T01:02:32;101758.78;;;-2.81;100.00
4085;BME280;2057;50.858;6.572;2023-01-29T01:05:17;101751.19;;;-2.75;100.00
4085;BME280;2057;50.858;6.572;2023-01-29T01:07:48;101741.41;;;-2.81;100.00
4085;BME280;2057;50.858;6.572;2023-01-29T01:10:17;101745.16;;;-2.77;100.00
4085;BME280;2057;50.858;6.572;2023-01-29T01:12:48;101748.69;;;-2.82;100.00
4085;BME280;2057;50.858;6.572;2023-01-29T01:15:15;101747.53;;;-2.92;100.00
4085;BME280;2057;50.858;6.572;2023-01-29T01:17:40;101736.50;;;-2.94;100.00
4085;BME280;2057;50.858;6.572;2023-01-29T01:20:06;101746.09;;;-2.90;100.00
4085;BME280;2057;50.858;6.572;2023-01-29T01:22:32;101741.78;;;-2.98;100.00
4085;BME280;2057;50.858;6.572;2023-01-29T01:24:57;101739.88;;;-2.93;100.00
4085;BME280;2057;50.858;6.572;2023-01-29T01:27:22;101742.56;;;-2.92;100.00
4085;BME280;2057;50.858;6.572;2023-01-29T01:29:48;101739.00;;;-2.94;100.00
4085;BME280;2057;50.858;6.572;2023-01-29T01:32:13;101749.81;;;-2.93;100.00
4085;BME280;2057;50.858;6.572;2023-01-29T01:34:39;101757.00;;;-2.82;100.00
4085;BME280;2057;50.858;6.572;2023-01-29T01:37:05;101757.97;;;-2.74;100.00
4085;BME280;2057;50.858;6.572;2023-01-29T01:39:30;101768.03;;;-2.80;100.00
4085;BME280;2057;50.858;6.572;2023-01-29T01:41:55;101761.28;;;-2.81;100.00
4085;BME280;2057;50.858;6.572;2023-01-29T01:47:25;101752.78;;;-3.03;100.00
4085;BME280;2057;50.858;6.572;2023-01-29T01:49:53;101742.09;;;-3.09;100.00
4085;BME280;2057;50.858;6.572;2023-01-29T01:52:20;101750.34;;;-3.16;100.00
4085;BME280;2057;50.858;6.572;2023-01-29T01:54:46;101745.22;;;-3.18;100.00
4085;BME280;2057;50.858;6.572;2023-01-29T01:57:17;101741.81;;;-3.18;100.00
4085;BME280;2057;50.858;6.572;2023-01-29T01:59:53;101732.41;;;-3.21;100.00
4085;BME280;2057;50.858;6.572;2023-01-29T02:02:22;101728.97;;;-3.28;100.00
4085;BME280;2057;50.858;6.572;2023-01-29T02:05:07;101716.06;;;-3.26;100.00
4085;BME280;2057;50.858;6.572;2023-01-29T02:07:51;101720.16;;;-3.19;100.00
4085;BME280;2057;50.858;6.572;2023-01-29T02:10:41;101724.94;;;-3.01;100.00
4085;BME280;2057;50.858;6.572;2023-01-29T02:13:06;101722.44;;;-3.01;100.00
4085;BME280;2057;50.858;6.572;2023-01-29T02:15:32;101738.47;;;-2.91;100.00
4085;BME280;2057;50.858;6.572;2023-01-29T02:18:00;101741.47;;;-2.94;100.00
4085;BME280;2057;50.858;6.572;2023-01-29T02:20:28;101740.78;;;-2.93;100.00
4085;BME280;2057;50.858;6.572;2023-01-29T02:30:40;101734.06;;;-3.14;100.00
4085;BME280;2057;50.858;6.572;2023-01-29T02:38:49;101740.66;;;-3.07;100.00
4085;BME280;2057;50.858;6.572;2023-01-29T02:41:24;101738.41;;;-3.26;100.00
4085;BME280;2057;50.858;6.572;2023-01-29T02:44:17;101735.34;;;-3.10;100.00
4085;BME280;2057;50.858;6.572;2023-01-29T02:55:26;101765.75;;;-2.98;100.00
4085;BME280;2057;50.858;6.572;2023-01-29T02:57:59;101771.81;;;-2.96;100.00
4085;BME280;2057;50.858;6.572;2023-01-29T03:00:29;101773.28;;;-3.11;100.00
4085;BME280;2057;50.858;6.572;2023-01-29T03:03:04;101778.38;;;-2.97;100.00
4085;BME280;2057;50.858;6.572;2023-01-29T03:05:39;101782.53;;;-3.10;100.00
4085;BME280;2057;50.858;6.572;2023-01-29T03:08:11;101789.91;;;-3.18;100.00
4085;BME280;2057;50.858;6.572;2023-01-29T03:10:46;101795.75;;;-3.17;100.00
4085;BME280;2057;50.858;6.572;2023-01-29T03:14:20;101799.22;;;-3.09;100.00
4085;BME280;2057;50.858;6.572;2023-01-29T03:16:22;101802.63;;;-3.02;100.00
4085;BME280;2057;50.858;6.572;2023-01-29T03:19:11;101792.19;;;-2.99;100.00
4085;BME280;2057;50.858;6.572;2023-01-29T03:21:44;101795.94;;;-3.16;100.00
4085;BME280;2057;50.858;6.572;2023-01-29T03:24:34;101769.53;;;-3.15;100.00
4085;BME280;2057;50.858;6.572;2023-01-29T03:27:23;101762.44;;;-3.32;100.00
4085;BME280;2057;50.858;6.572;2023-01-29T03:30:11;101764.44;;;-3.63;100.00
4085;BME280;2057;50.858;6.572;2023-01-29T03:32:58;101753.31;;;-3.59;100.00
4085;BME280;2057;50.858;6.572;2023-01-29T03:35:27;101749.16;;;-3.53;100.00
4085;BME280;2057;50.858;6.572;2023-01-29T03:37:59;101743.28;;;-3.33;100.00
4085;BME280;2057;50.858;6.572;2023-01-29T03:40:28;101746.16;;;-3.50;100.00
4085;BME280;2057;50.858;6.572;2023-01-29T03:45:57;101747.47;;;-3.59;100.00
4085;BME280;2057;50.858;6.572;2023-01-29T03:48:53;101743.59;;;-3.57;100.00
4085;BME280;2057;50.858;6.572;2023-01-29T03:51:41;101750.44;;;-3.49;100.00
4085;BME280;2057;50.858;6.572;2023-01-29T03:59:18;101761.78;;;-3.64;100.00
4085;BME280;2057;50.858;6.572;2023-01-29T04:02:01;101771.59;;;-3.58;100.00
4085;BME280;2057;50.858;6.572;2023-01-29T04:04:31;101766.34;;;-3.67;100.00
4085;BME280;2057;50.858;6.572;2023-01-29T04:07:11;101760.41;;;-3.62;100.00
4085;BME280;2057;50.858;6.572;2023-01-29T04:09:48;101753.59;;;-3.70;100.00
4085;BME280;2057;50.858;6.572;2023-01-29T04:12:18;101752.25;;;-3.61;100.00
4085;BME280;2057;50.858;6.572;2023-01-29T04:14:46;101752.28;;;-3.41;100.00
4085;BME280;2057;50.858;6.572;2023-01-29T04:17:19;101750.53;;;-3.55;100.00
4085;BME280;2057;50.858;6.572;2023-01-29T04:19:46;101748.28;;;-3.66;100.00
4085;BME280;2057;50.858;6.572;2023-01-29T04:22:13;101749.16;;;-3.53;100.00
4085;BME280;2057;50.858;6.572;2023-01-29T04:24:41;101748.06;;;-3.55;100.00
4085;BME280;2057;50.858;6.572;2023-01-29T04:29:56;101735.88;;;-3.66;100.00
4085;BME280;2057;50.858;6.572;2023-01-29T04:33:05;101731.72;;;-3.60;100.00
4085;BME280;2057;50.858;6.572;2023-01-29T04:41:20;101710.28;;;-3.92;100.00
4085;BME280;2057;50.858;6.572;2023-01-29T04:46:32;101702.84;;;-3.92;100.00
4085;BME280;2057;50.858;6.572;2023-01-29T04:49:28;101712.03;;;-3.79;100.00
4085;BME280;2057;50.858;6.572;2023-01-29T04:52:16;101708.00;;;-3.71;100.00
4085;BME280;2057;50.858;6.572;2023-01-29T04:57:39;101703.50;;;-3.81;100.00
4085;BME280;2057;50.858;6.572;2023-01-29T05:00:55;101699.28;;;-3.74;100.00
4085;BME280;2057;50.858;6.572;2023-01-29T05:02:58;101694.78;;;-3.64;100.00
4085;BME280;2057;50.858;6.572;2023-01-29T05:05:24;101700.78;;;-3.69;100.00
4085;BME280;2057;50.858;6.572;2023-01-29T05:07:51;101700.63;;;-3.64;100.00
4085;BME280;2057;50.858;6.572;2023-01-29T05:10:19;101693.22;;;-3.76;100.00
4085;BME280;2057;50.858;6.572;2023-01-29T05:12:48;101676.03;;;-3.82;100.00
4085;BME280;2057;50.858;6.572;2023-01-29T05:15:19;101685.09;;;-3.75;100.00
4085;BME280;2057;50.858;6.572;2023-01-29T05:17:47;101688.22;;;-3.84;100.00
4085;BME280;2057;50.858;6.572;2023-01-29T05:20:12;101691.53;;;-3.90;100.00
4085;BME280;2057;50.858;6.572;2023-01-29T05:22:40;101685.16;;;-3.88;100.00
4085;BME280;2057;50.858;6.572;2023-01-29T05:25:19;101694.22;;;-3.69;100.00
4085;BME280;2057;50.858;6.572;2023-01-29T05:27:45;101704.66;;;-3.71;100.00
4085;BME280;2057;50.858;6.572;2023-01-29T05:30:32;101690.91;;;-3.62;100.00
4085;BME280;2057;50.858;6.572;2023-01-29T05:32:58;101694.03;;;-3.70;100.00
4085;BME280;2057;50.858;6.572;2023-01-29T05:35:24;101705.00;;;-3.68;100.00
4085;BME280;2057;50.858;6.572;2023-01-29T05:37:49;101695.38;;;-3.59;100.00
4085;BME280;2057;50.858;6.572;2023-01-29T05:40:17;101690.22;;;-3.61;100.00
4085;BME280;2057;50.858;6.572;2023-01-29T05:42:42;101692.47;;;-3.63;100.00
4085;BME280;2057;50.858;6.572;2023-01-29T05:45:08;101687.91;;;-3.39;100.00
4085;BME280;2057;50.858;6.572;2023-01-29T05:47:33;101694.09;;;-3.63;100.00
4085;BME280;2057;50.858;6.572;2023-01-29T05:49:59;101691.09;;;-3.81;100.00
4085;BME280;2057;50.858;6.572;2023-01-29T05:52:24;101693.97;;;-3.78;100.00
4085;BME280;2057;50.858;6.572;2023-01-29T05:54:49;101694.72;;;-3.71;100.00
4085;BME280;2057;50.858;6.572;2023-01-29T05:57:14;101690.69;;;-3.64;100.00
4085;BME280;2057;50.858;6.572;2023-01-29T05:59:40;101691.00;;;-3.88;100.00
4085;BME280;2057;50.858;6.572;2023-01-29T06:02:05;101682.59;;;-3.96;100.00
4085;BME280;2057;50.858;6.572;2023-01-29T06:04:31;101686.16;;;-3.94;100.00
4085;BME280;2057;50.858;6.572;2023-01-29T06:06:57;101690.16;;;-4.01;100.00
4085;BME280;2057;50.858;6.572;2023-01-29T06:09:22;101688.06;;;-3.98;100.00
4085;BME280;2057;50.858;6.572;2023-01-29T06:11:48;101677.97;;;-4.00;100.00
4085;BME280;2057;50.858;6.572;2023-01-29T06:14:13;101677.75;;;-4.01;100.00
4085;BME280;2057;50.858;6.572;2023-01-29T06:16:38;101681.13;;;-4.01;100.00
4085;BME280;2057;50.858;6.572;2023-01-29T06:19:04;101678.97;;;-3.85;100.00
4085;BME280;2057;50.858;6.572;2023-01-29T06:21:29;101685.16;;;-3.68;100.00
4085;BME280;2057;50.858;6.572;2023-01-29T06:23:54;101675.88;;;-3.76;100.00
4085;BME280;2057;50.858;6.572;2023-01-29T06:26:20;101676.66;;;-3.70;100.00
4085;BME280;2057;50.858;6.572;2023-01-29T06:28:48;101675.03;;;-3.90;100.00
4085;BME280;2057;50.858;6.572;2023-01-29T06:31:13;101681.09;;;-3.88;100.00
4085;BME280;2057;50.858;6.572;2023-01-29T06:33:39;101677.00;;;-3.87;100.00
4085;BME280;2057;50.858;6.572;2023-01-29T06:36:04;101691.38;;;-3.85;100.00
4085;BME280;2057;50.858;6.572;2023-01-29T06:38:30;101698.06;;;-3.91;100.00
4085;BME280;2057;50.858;6.572;2023-01-29T06:40:56;101703.03;;;-3.91;100.00
4085;BME280;2057;50.858;6.572;2023-01-29T06:43:22;101713.94;;;-3.83;100.00
4085;BME280;2057;50.858;6.572;2023-01-29T06:45:54;101714.50;;;-3.79;100.00
4085;BME280;2057;50.858;6.572;2023-01-29T06:48:21;101722.03;;;-3.71;100.00
4085;BME280;2057;50.858;6.572;2023-01-29T06:50:46;101736.09;;;-3.65;100.00
4085;BME280;2057;50.858;6.572;2023-01-29T06:53:13;101739.63;;;-3.63;100.00
4085;BME280;2057;50.858;6.572;2023-01-29T06:55:40;101750.84;;;-3.59;100.00
4085;BME280;2057;50.858;6.572;2023-01-29T06:58:07;101744.47;;;-3.57;100.00
4085;BME280;2057;50.858;6.572;2023-01-29T07:00:33;101744.41;;;-3.64;100.00
4085;BME280;2057;50.858;6.572;2023-01-29T07:02:58;101746.59;;;-3.60;100.00
4085;BME280;2057;50.858;6.572;2023-01-29T07:05:24;101749.34;;;-3.51;100.00
4085;BME280;2057;50.858;6.572;2023-01-29T07:07:49;101736.63;;;-3.47;100.00
4085;BME280;2057;50.858;6.572;2023-01-29T07:10:15;101739.91;;;-3.54;100.00
4085;BME280;2057;50.858;6.572;2023-01-29T07:12:40;101723.63;;;-3.52;100.00
4085;BME280;2057;50.858;6.572;2023-01-29T07:15:08;101724.44;;;-3.58;100.00
4085;BME280;2057;50.858;6.572;2023-01-29T07:17:37;101734.38;;;-3.38;100.00
4085;BME280;2057;50.858;6.572;2023-01-29T07:20:03;101732.59;;;-3.39;100.00
4085;BME280;2057;50.858;6.572;2023-01-29T07:22:28;101720.69;;;-3.42;100.00
4085;BME280;2057;50.858;6.572;2023-01-29T07:24:54;101719.53;;;-3.31;100.00
4085;BME280;2057;50.858;6.572;2023-01-29T07:27:19;101713.34;;;-3.27;100.00
4085;BME280;2057;50.858;6.572;2023-01-29T07:29:44;101713.81;;;-3.37;100.00
4085;BME280;2057;50.858;6.572;2023-01-29T07:32:09;101709.84;;;-3.42;100.00
4085;BME280;2057;50.858;6.572;2023-01-29T07:34:35;101721.56;;;-3.41;100.00
4085;BME280;2057;50.858;6.572;2023-01-29T07:37:00;101717.13;;;-3.24;100.00
4085;BME280;2057;50.858;6.572;2023-01-29T07:39:25;101715.81;;;-3.07;100.00
4085;BME280;2057;50.858;6.572;2023-01-29T07:41:51;101724.03;;;-3.01;100.00
4085;BME280;2057;50.858;6.572;2023-01-29T07:44:16;101725.09;;;-2.99;100.00
4085;BME280;2057;50.858;6.572;2023-01-29T07:46:42;101719.66;;;-2.96;100.00
4085;BME280;2057;50.858;6.572;2023-01-29T07:49:07;101716.63;;;-2.94;100.00
4085;BME280;2057;50.858;6.572;2023-01-29T07:51:32;101722.97;;;-3.03;100.00
4085;BME280;2057;50.858;6.572;2023-01-29T07:53:58;101715.25;;;-2.92;100.00
4085;BME280;2057;50.858;6.572;2023-01-29T07:56:23;101714.69;;;-2.96;100.00
4085;BME280;2057;50.858;6.572;2023-01-29T07:58:48;101714.59;;;-2.84;100.00
4085;BME280;2057;50.858;6.572;2023-01-29T08:01:15;101720.84;;;-2.73;100.00
4085;BME280;2057;50.858;6.572;2023-01-29T08:03:40;101706.31;;;-2.70;100.00
4085;BME280;2057;50.858;6.572;2023-01-29T08:06:06;101712.91;;;-2.63;100.00
4085;BME280;2057;50.858;6.572;2023-01-29T08:08:31;101709.03;;;-2.61;100.00
4085;BME280;2057;50.858;6.572;2023-01-29T08:10:59;101708.03;;;-2.48;100.00
4085;BME280;2057;50.858;6.572;2023-01-29T08:13:25;101711.41;;;-2.48;100.00
4085;BME280;2057;50.858;6.572;2023-01-29T08:15:50;101711.75;;;-2.52;100.00
4085;BME280;2057;50.858;6.572;2023-01-29T08:18:15;101715.50;;;-2.48;100.00
4085;BME280;2057;50.858;6.572;2023-01-29T08:20:41;101714.44;;;-2.43;100.00
4085;BME280;2057;50.858;6.572;2023-01-29T08:23:12;101713.72;;;-2.49;100.00
4085;BME280;2057;50.858;6.572;2023-01-29T08:25:37;101701.97;;;-2.50;100.00
4085;BME280;2057;50.858;6.572;2023-01-29T08:28:02;101697.59;;;-2.39;100.00
4085;BME280;2057;50.858;6.572;2023-01-29T08:30:30;101699.88;;;-2.47;100.00
4085;BME280;2057;50.858;6.572;2023-01-29T08:32:56;101708.53;;;-2.51;100.00
4085;BME280;2057;50.858;6.572;2023-01-29T08:35:22;101715.16;;;-2.44;100.00
4085;BME280;2057;50.858;6.572;2023-01-29T08:40:20;101709.50;;;-2.36;100.00
4085;BME280;2057;50.858;6.572;2023-01-29T08:42:45;101716.06;;;-2.44;100.00
4085;BME280;2057;50.858;6.572;2023-01-29T08:45:11;101708.78;;;-2.42;100.00
4085;BME280;2057;50.858;6.572;2023-01-29T08:47:36;101718.56;;;-2.37;100.00
4085;BME280;2057;50.858;6.572;2023-01-29T08:50:02;101716.09;;;-2.37;100.00
4085;BME280;2057;50.858;6.572;2023-01-29T08:52:27;101715.38;;;-2.35;100.00
4085;BME280;2057;50.858;6.572;2023-01-29T08:54:52;101713.06;;;-2.34;100.00
4085;BME280;2057;50.858;6.572;2023-01-29T08:57:18;101702.97;;;-2.28;100.00
4085;BME280;2057;50.858;6.572;2023-01-29T08:59:43;101694.97;;;-2.26;100.00
4085;BME280;2057;50.858;6.572;2023-01-29T09:02:09;101704.63;;;-2.14;100.00
4085;BME280;2057;50.858;6.572;2023-01-29T09:04:35;101709.31;;;-1.96;100.00
4085;BME280;2057;50.858;6.572;2023-01-29T09:07:00;101700.38;;;-2.01;100.00
4085;BME280;2057;50.858;6.572;2023-01-29T09:09:25;101690.09;;;-2.04;100.00
4085;BME280;2057;50.858;6.572;2023-01-29T09:11:51;101680.47;;;-2.01;100.00
4085;BME280;2057;50.858;6.572;2023-01-29T09:14:16;101691.34;;;-2.00;100.00
4085;BME280;2057;50.858;6.572;2023-01-29T09:16:42;101680.84;;;-1.98;100.00
4085;BME280;2057;50.858;6.572;2023-01-29T09:19:07;101692.94;;;-1.94;100.00
4085;BME280;2057;50.858;6.572;2023-01-29T09:21:32;101693.53;;;-1.67;100.00
4085;BME280;2057;50.858;6.572;2023-01-29T09:23:57;101695.81;;;-1.83;100.00
4085;BME280;2057;50.858;6.572;2023-01-29T09:26:23;101701.16;;;-1.73;100.00
4085;BME280;2057;50.858;6.572;2023-01-29T09:28:48;101702.78;;;-1.74;100.00
4085;BME280;2057;50.858;6.572;2023-01-29T09:31:13;101698.31;;;-1.69;100.00
4085;BME280;2057;50.858;6.572;2023-01-29T09:33:39;101691.59;;;-1.63;100.00
4085;BME280;2057;50.858;6.572;2023-01-29T09:36:04;101687.16;;;-1.58;100.00
4085;BME280;2057;50.858;6.572;2023-01-29T09:38:30;101681.25;;;-1.59;100.00
4085;BME280;2057;50.858;6.572;2023-01-29T09:41:07;101691.97;;;-1.52;100.00
4085;BME280;2057;50.858;6.572;2023-01-29T09:43:46;101684.81;;;-1.49;100.00
4085;BME280;2057;50.858;6.572;2023-01-29T09:46:22;101676.66;;;-1.48;100.00
4085;BME280;2057;50.858;6.572;2023-01-29T09:48:59;101671.66;;;-1.48;100.00
4085;BME280;2057;50.858;6.572;2023-01-29T09:51:31;101666.50;;;-1.43;100.00
4085;BME280;2057;50.858;6.572;2023-01-29T09:54:30;101666.69;;;-1.41;100.00
4085;BME280;2057;50.858;6.572;2023-01-29T09:56:57;101672.03;;;-1.31;100.00
4085;BME280;2057;50.858;6.572;2023-01-29T09:59:26;101663.47;;;-1.26;100.00
4085;BME280;2057;50.858;6.572;2023-01-29T10:02:21;101654.03;;;-1.14;100.00
4085;BME280;2057;50.858;6.572;2023-01-29T10:05:12;101653.09;;;-1.00;100.00
4085;BME280;2057;50.858;6.572;2023-01-29T10:15:44;101639.88;;;-0.77;100.00
4085;BME280;2057;50.858;6.572;2023-01-29T10:18:39;101627.06;;;-0.80;100.00
4085;BME280;2057;50.858;6.572;2023-01-29T10:21:32;101618.16;;;-0.78;100.00
4085;BME280;2057;50.858;6.572;2023-01-29T10:24:21;101622.94;;;-0.72;100.00
4085;BME280;2057;50.858;6.572;2023-01-29T10:26:50;101619.88;;;-0.63;100.00
4085;BME280;2057;50.858;6.572;2023-01-29T10:29:18;101620.53;;;-0.49;100.00
4085;BME280;2057;50.858;6.572;2023-01-29T10:31:46;101620.88;;;-0.46;100.00
4085;BME280;2057;50.858;6.572;2023-01-29T10:34:20;101621.38;;;-0.41;100.00
4085;BME280;2057;50.858;6.572;2023-01-29T10:36:49;101610.84;;;-0.39;100.00
4085;BME280;2057;50.858;6.572;2023-01-29T10:39:18;101618.88;;;-0.41;100.00
4085;BME280;2057;50.858;6.572;2023-01-29T10:44:36;101627.19;;;-0.26;100.00
4085;BME280;2057;50.858;6.572;2023-01-29T10:50:20;101615.56;;;-0.19;100.00
4085;BME280;2057;50.858;6.572;2023-01-29T10:55:42;101610.03;;;-0.16;100.00
4085;BME280;2057;50.858;6.572;2023-01-29T10:58:40;101607.09;;;-0.05;100.00
4085;BME280;2057;50.858;6.572;2023-01-29T11:01:09;101602.22;;;0.04;100.00
4085;BME280;2057;50.858;6.572;2023-01-29T11:03:34;101609.03;;;-0.02;100.00
4085;BME280;2057;50.858;6.572;2023-01-29T11:14:05;101596.28;;;0.11;100.00
4085;BME280;2057;50.858;6.572;2023-01-29T11:16:43;101587.69;;;0.16;100.00
4085;BME280;2057;50.858;6.572;2023-01-29T11:19:09;101582.09;;;0.26;100.00
4085;BME280;2057;50.858;6.572;2023-01-29T11:24:17;101581.13;;;0.09;100.00
4085;BME280;2057;50.858;6.572;2023-01-29T11:26:45;101574.69;;;0.11;100.00
4085;BME280;2057;50.858;6.572;2023-01-29T11:29:38;101564.50;;;0.17;100.00
4085;BME280;2057;50.858;6.572;2023-01-29T11:32:27;101563.31;;;0.29;100.00
4085;BME280;2057;50.858;6.572;2023-01-29T11:35:04;101558.19;;;0.44;100.00
4085;BME280;2057;50.858;6.572;2023-01-29T11:39:57;101541.16;;;0.33;100.00
4085;BME280;2057;50.858;6.572;2023-01-29T11:42:22;101540.13;;;0.46;100.00
4085;BME280;2057;50.858;6.572;2023-01-29T11:44:48;101538.38;;;0.61;100.00
4085;BME280;2057;50.858;6.572;2023-01-29T11:49:50;101540.47;;;0.50;100.00
4085;BME280;2057;50.858;6.572;2023-01-29T11:52:20;101535.97;;;0.54;100.00
4085;BME280;2057;50.858;6.572;2023-01-29T11:54:58;101535.97;;;0.54;100.00
4085;BME280;2057;50.858;6.572;2023-01-29T11:57:33;101528.72;;;0.65;100.00
4085;BME280;2057;50.858;6.572;2023-01-29T12:00:03;101529.38;;;0.71;100.00
4085;BME280;2057;50.858;6.572;2023-01-29T12:02:35;101525.16;;;0.78;100.00
4085;BME280;2057;50.858;6.572;2023-01-29T12:07:42;101504.13;;;0.76;100.00
4085;BME280;2057;50.858;6.572;2023-01-29T12:10:28;101503.06;;;0.74;100.00
4085;BME280;2057;50.858;6.572;2023-01-29T12:15:37;101492.03;;;0.88;100.00
4085;BME280;2057;50.858;6.572;2023-01-29T12:20:53;101487.56;;;1.02;100.00
4085;BME280;2057;50.858;6.572;2023-01-29T12:23:26;101483.13;;;0.99;100.00
4085;BME280;2057;50.858;6.572;2023-01-29T12:26:00;101472.88;;;1.05;100.00
4085;BME280;2057;50.858;6.572;2023-01-29T12:31:42;101452.03;;;1.13;100.00
4085;BME280;2057;50.858;6.572;2023-01-29T12:36:49;101432.84;;;1.21;100.00
4085;BME280;2057;50.858;6.572;2023-01-29T12:39:19;101425.78;;;1.25;100.00
4085;BME280;2057;50.858;6.572;2023-01-29T12:41:58;101420.81;;;1.34;100.00
4085;BME280;2057;50.858;6.572;2023-01-29T12:44:37;101409.38;;;1.36;100.00
4085;BME280;2057;50.858;6.572;2023-01-29T12:47:09;101408.06;;;1.49;100.00
4085;BME280;2057;50.858;6.572;2023-01-29T12:49:41;101402.06;;;1.55;100.00
4085;BME280;2057;50.858;6.572;2023-01-29T12:54:48;101388.72;;;1.64;100.00
4085;BME280;2057;50.858;6.572;2023-01-29T12:57:20;101383.88;;;1.74;100.00
4085;BME280;2057;50.858;6.572;2023-01-29T12:59:53;101372.84;;;1.72;100.00
4085;BME280;2057;50.858;6.572;2023-01-29T13:05:19;101376.06;;;1.71;100.00
4085;BME280;2057;50.858;6.572;2023-01-29T13:07:52;101372.38;;;1.67;100.00
4085;BME280;2057;50.858;6.572;2023-01-29T13:10:28;101367.81;;;1.72;98.88
4085;BME280;2057;50.858;6.572;2023-01-29T13:13:01;101366.22;;;1.72;98.53
4085;BME280;2057;50.858;6.572;2023-01-29T13:15:35;101356.81;;;1.79;98.42
4085;BME280;2057;50.858;6.572;2023-01-29T13:20:42;101350.47;;;1.91;95.51
4085;BME280;2057;50.858;6.572;2023-01-29T13:23:27;101353.56;;;1.88;93.67
4085;BME280;2057;50.858;6.572;2023-01-29T13:25:56;101349.31;;;1.96;93.99
4085;BME280;2057;50.858;6.572;2023-01-29T13:28:24;101345.47;;;1.91;94.09
4085;BME280;2057;50.858;6.572;2023-01-29T13:31:31;101339.44;;;1.98;95.51
4085;BME280;2057;50.858;6.572;2023-01-29T13:34:12;101331.34;;;2.00;94.48
4085;BME280;2057;50.858;6.572;2023-01-29T13:36:51;101327.22;;;1.92;94.49
4085;BME280;2057;50.858;6.572;2023-01-29T13:41:51;101321.94;;;2.07;93.97
4085;BME280;2057;50.858;6.572;2023-01-29T13:44:28;101313.09;;;2.10;93.17
4085;BME280;2057;50.858;6.572;2023-01-29T13:46:59;101317.34;;;2.02;94.05
4085;BME280;2057;50.858;6.572;2023-01-29T13:49:36;101306.16;;;1.99;94.06
4085;BME280;2057;50.858;6.572;2023-01-29T14:05:42;101307.66;;;2.06;94.19
4085;BME280;2057;50.858;6.572;2023-01-29T14:10:35;101315.00;;;1.95;94.74
4085;BME280;2057;50.858;6.572;2023-01-29T14:15:32;101315.56;;;1.84;94.06
4085;BME280;2057;50.858;6.572;2023-01-29T14:25:57;101328.97;;;1.84;96.06
4085;BME280;2057;50.858;6.572;2023-01-29T14:28:25;101315.25;;;1.72;96.46
4085;BME280;2057;50.858;6.572;2023-01-29T14:30:53;101321.03;;;1.80;94.87
4085;BME280;2057;50.858;6.572;2023-01-29T14:33:32;101316.03;;;1.80;94.86
4085;BME280;2057;50.858;6.572;2023-01-29T14:36:03;101318.06;;;1.75;95.42
4085;BME280;2057;50.858;6.572;2023-01-29T14:38:30;101311.00;;;1.80;95.30
4085;BME280;2057;50.858;6.572;2023-01-29T14:41:24;101318.06;;;1.84;94.22
4085;BME280;2057;50.858;6.572;2023-01-29T14:43:48;101317.63;;;1.79;94.42
4085;BME280;2057;50.858;6.572;2023-01-29T14:49:00;101309.09;;;1.86;94.44
4085;BME280;2057;50.858;6.572;2023-01-29T14:51:26;101312.19;;;1.83;94.27
4085;BME280;2057;50.858;6.572;2023-01-29T14:59:29;101308.19;;;1.77;94.88
4085;BME280;2057;50.858;6.572;2023-01-29T15:02:00;101325.44;;;1.82;95.17
4085;BME280;2057;50.858;6.572;2023-01-29T15:04:35;101313.94;;;1.76;95.60
4085;BME280;2057;50.858;6.572;2023-01-29T15:07:14;101316.88;;;1.80;95.42
4085;BME280;2057;50.858;6.572;2023-01-29T15:09:46;101319.13;;;1.77;94.42
4085;BME280;2057;50.858;6.572;2023-01-29T15:14:48;101319.97;;;1.78;94.08
4085;BME280;2057;50.858;6.572;2023-01-29T15:17:21;101320.72;;;1.68;94.38
4085;BME280;2057;50.858;6.572;2023-01-29T15:19:48;101317.91;;;1.73;93.42
4085;BME280;2057;50.858;6.572;2023-01-29T15:22:17;101319.84;;;1.76;92.83
4085;BME280;2057;50.858;6.572;2023-01-29T15:24:44;101319.13;;;1.77;92.95
4085;BME280;2057;50.858;6.572;2023-01-29T15:27:13;101323.66;;;1.72;93.02
4085;BME280;2057;50.858;6.572;2023-01-29T15:29:40;101322.19;;;1.75;92.92
4085;BME280;2057;50.858;6.572;2023-01-29T15:32:13;101328.69;;;1.72;93.21
4085;BME280;2057;50.858;6.572;2023-01-29T15:34:42;101324.22;;;1.70;93.18
4085;BME280;2057;50.858;6.572;2023-01-29T15:37:29;101322.75;;;1.72;92.82
4085;BME280;2057;50.858;6.572;2023-01-29T15:42:42;101317.94;;;1.82;93.30
4085;BME280;2057;50.858;6.572;2023-01-29T15:47:47;101316.84;;;1.63;93.72
4085;BME280;2057;50.858;6.572;2023-01-29T15:50:14;101320.25;;;1.63;94.03
4085;BME280;2057;50.858;6.572;2023-01-29T15:52:39;101318.03;;;1.66;94.44